Terminal Aerodrome Forecast
Issued by NWS

Home | Current Version | Previous Version | Text Only | Print | Product List | Glossary On
Versions: 1 2 3 4 5 6 7 8 9 10 11 12
000
FTUS45 KRIW 300500
TAFCOD
TAF
KCOD 300540Z 3006/3106 20007KT P6SM SCT110
     FM301200 23012G18KT P6SM VCSH SCT080 BKN110
     FM301800 VRB12G18KT P6SM VCTS SCT070CB BKN110
     FM310000 36010KT P6SM VCTS BKN070CB
     FM310400 35008KT P6SM VCSH SCT050 BKN080
      AMD LTD TO CLD VIS AND WIND=

USA.gov is the U.S. government's official web portal to all federal, state and local government web resources and services.